createdAt,value
2023-04-08T00:00:10.746Z,500.00
2023-04-08T00:01:10.732Z,500.00
2023-04-08T00:02:10.822Z,500.00
2023-04-08T00:03:10.850Z,405.00
2023-04-08T00:04:11.038Z,400.00
2023-04-08T00:05:10.674Z,400.00
2023-04-08T00:06:10.664Z,400.00
2023-04-08T00:07:10.658Z,400.00
2023-04-08T00:08:10.646Z,400.00
2023-04-08T00:09:10.644Z,400.00
2023-04-08T00:10:10.685Z,400.00
2023-04-08T00:11:10.645Z,400.00
2023-04-08T00:12:10.620Z,431.00
2023-04-08T00:13:10.648Z,461.00
2023-04-08T00:14:10.614Z,499.00
2023-04-08T00:15:10.606Z,501.00
2023-04-08T00:16:10.589Z,500.00
2023-04-08T00:17:10.668Z,502.00
2023-04-08T00:18:10.682Z,503.00
2023-04-08T00:19:10.573Z,500.00
2023-04-08T00:20:10.588Z,505.00
2023-04-08T00:21:10.574Z,500.00
2023-04-08T00:22:10.556Z,501.00
2023-04-08T00:23:10.551Z,501.00
2023-04-08T00:24:10.552Z,502.00
2023-04-08T00:25:10.541Z,501.00
2023-04-08T00:26:10.552Z,500.00
2023-04-08T00:27:10.556Z,503.00
2023-04-08T00:28:10.541Z,502.00
2023-04-08T00:29:10.586Z,505.00
2023-04-08T00:30:10.547Z,504.00
2023-04-08T00:31:10.575Z,500.00
2023-04-08T00:32:10.546Z,500.00
2023-04-08T00:33:10.624Z,501.00
2023-04-08T00:34:10.529Z,503.00
2023-04-08T00:35:10.534Z,509.00
2023-04-08T00:36:10.532Z,504.00
2023-04-08T00:37:10.534Z,500.00
2023-04-08T00:38:10.532Z,507.00
2023-04-08T00:39:10.519Z,507.00
2023-04-08T00:40:10.518Z,501.00
2023-04-08T00:41:10.516Z,510.00
2023-04-08T00:42:10.517Z,502.00
2023-04-08T00:43:10.526Z,504.00
2023-04-08T00:44:10.514Z,502.00
2023-04-08T00:45:10.537Z,502.00
2023-04-08T00:46:10.568Z,500.00
2023-04-08T00:47:10.508Z,504.00
2023-04-08T00:48:10.506Z,505.00
2023-04-08T00:49:10.509Z,500.00
2023-04-08T00:50:10.499Z,500.00
2023-04-08T00:51:10.502Z,500.00
2023-04-08T00:52:10.512Z,501.00
2023-04-08T00:53:10.492Z,505.00
2023-04-08T00:54:10.494Z,500.00
2023-04-08T00:55:10.486Z,502.00
2023-04-08T00:56:10.498Z,505.00
2023-04-08T00:57:10.481Z,504.00
2023-04-08T00:58:10.486Z,507.00
2023-04-08T00:59:10.487Z,506.00
2023-04-08T01:00:10.468Z,508.00
2023-04-08T01:01:10.531Z,507.00
2023-04-08T01:02:10.609Z,507.00
2023-04-08T01:03:10.604Z,508.00
2023-04-08T01:04:10.584Z,500.00
2023-04-08T01:05:10.472Z,501.00
2023-04-08T01:06:10.474Z,505.00
2023-04-08T01:07:10.474Z,506.00
2023-04-08T01:08:10.472Z,504.00
2023-04-08T01:09:10.475Z,504.00
2023-04-08T01:10:10.470Z,502.00
2023-04-08T01:11:10.477Z,503.00
2023-04-08T01:12:10.477Z,502.00
2023-04-08T01:13:10.484Z,506.00
2023-04-08T01:14:10.484Z,504.00
2023-04-08T01:15:10.475Z,501.00
2023-04-08T01:16:10.515Z,504.00
2023-04-08T01:17:10.492Z,503.00
2023-04-08T01:18:10.473Z,506.00
2023-04-08T01:19:10.480Z,506.00
2023-04-08T01:20:10.468Z,503.00
2023-04-08T01:21:10.472Z,513.00
2023-04-08T01:22:10.471Z,505.00
2023-04-08T01:23:10.476Z,503.00
2023-04-08T01:24:10.478Z,501.00
2023-04-08T01:25:10.486Z,504.00
2023-04-08T01:26:10.470Z,506.00
2023-04-08T01:27:10.487Z,507.00
2023-04-08T01:28:10.483Z,506.00
2023-04-08T01:29:10.480Z,506.00
2023-04-08T01:30:10.487Z,503.00
2023-04-08T01:31:10.571Z,507.00
2023-04-08T01:32:10.507Z,506.00
2023-04-08T01:33:10.530Z,507.00
2023-04-08T01:34:10.511Z,502.00
2023-04-08T01:35:10.508Z,505.00
2023-04-08T01:36:10.501Z,506.00
2023-04-08T01:37:10.502Z,505.00
2023-04-08T01:38:10.510Z,502.00
2023-04-08T01:39:10.517Z,505.00
2023-04-08T01:40:10.519Z,504.00
2023-04-08T01:41:10.521Z,501.00
2023-04-08T01:42:10.527Z,504.00
2023-04-08T01:43:10.528Z,500.00
2023-04-08T01:44:10.529Z,505.00
2023-04-08T01:45:10.528Z,509.00
2023-04-08T01:46:10.608Z,508.00
2023-04-08T01:47:10.538Z,504.00
2023-04-08T01:48:10.543Z,503.00
2023-04-08T01:49:10.568Z,508.00
2023-04-08T01:50:10.556Z,512.00
2023-04-08T01:51:10.550Z,507.00
2023-04-08T01:52:10.582Z,512.00
2023-04-08T01:53:10.553Z,508.00
2023-04-08T01:54:10.550Z,510.00
2023-04-08T01:55:10.555Z,509.00
2023-04-08T01:56:10.544Z,513.00
2023-04-08T01:57:10.550Z,504.00
2023-04-08T01:58:10.557Z,507.00
2023-04-08T01:59:10.581Z,501.00
2023-04-08T02:00:10.570Z,507.00
2023-04-08T02:01:10.564Z,504.00
2023-04-08T02:02:10.619Z,507.00
2023-04-08T02:03:10.745Z,503.00
2023-04-08T02:04:10.766Z,504.00
2023-04-08T02:05:10.622Z,507.00
2023-04-08T02:06:10.580Z,508.00
2023-04-08T02:07:10.585Z,509.00
2023-04-08T02:08:10.583Z,507.00
2023-04-08T02:09:10.594Z,505.00
2023-04-08T02:10:10.613Z,501.00
2023-04-08T02:11:10.605Z,505.00
2023-04-08T02:12:10.627Z,506.00
2023-04-08T02:13:10.612Z,512.00
2023-04-08T02:14:10.652Z,506.00
2023-04-08T02:15:10.627Z,510.00
2023-04-08T02:16:10.660Z,508.00
2023-04-08T02:17:10.630Z,507.00
2023-04-08T02:18:10.708Z,509.00
2023-04-08T02:19:10.646Z,506.00
2023-04-08T02:20:10.649Z,511.00
2023-04-08T02:21:10.702Z,511.00
2023-04-08T02:22:10.659Z,507.00
2023-04-08T02:23:10.659Z,510.00
2023-04-08T02:24:10.665Z,507.00
2023-04-08T02:25:10.682Z,509.00
2023-04-08T02:26:10.750Z,512.00
2023-04-08T02:27:10.693Z,504.00
2023-04-08T02:28:10.669Z,505.00
2023-04-08T02:29:10.670Z,511.00
2023-04-08T02:30:10.680Z,506.00
2023-04-08T02:31:10.720Z,512.00
2023-04-08T02:32:10.684Z,509.00
2023-04-08T02:33:10.718Z,512.00
2023-04-08T02:34:10.695Z,511.00
2023-04-08T02:35:10.694Z,512.00
2023-04-08T02:36:10.698Z,513.00
2023-04-08T02:37:10.723Z,511.00
2023-04-08T02:38:10.699Z,508.00
2023-04-08T02:39:10.708Z,510.00
2023-04-08T02:40:10.706Z,505.00
2023-04-08T02:41:10.704Z,505.00
2023-04-08T02:42:11.943Z,508.00
2023-04-08T02:43:10.698Z,511.00
2023-04-08T02:44:10.695Z,508.00
2023-04-08T02:45:10.698Z,511.00
2023-04-08T02:46:10.800Z,508.00
2023-04-08T02:47:10.709Z,505.00
2023-04-08T02:48:10.726Z,510.00
2023-04-08T02:49:10.724Z,509.00
2023-04-08T02:50:10.703Z,509.00
2023-04-08T02:51:10.703Z,503.00
2023-04-08T02:52:10.709Z,504.00
2023-04-08T02:53:10.746Z,507.00
2023-04-08T02:54:10.715Z,510.00
2023-04-08T02:55:10.804Z,504.00
2023-04-08T02:56:10.713Z,510.00
2023-04-08T02:57:10.713Z,505.00
2023-04-08T02:58:10.718Z,512.00
2023-04-08T02:59:10.722Z,511.00
2023-04-08T03:00:10.731Z,511.00
2023-04-08T03:01:10.790Z,505.00
2023-04-08T03:02:10.804Z,511.00
2023-04-08T03:03:10.806Z,506.00
2023-04-08T03:04:10.740Z,515.00
2023-04-08T03:05:10.737Z,511.00
2023-04-08T03:06:10.747Z,507.00
2023-04-08T03:07:10.778Z,506.00
2023-04-08T03:08:10.747Z,505.00
2023-04-08T03:09:10.768Z,509.00
2023-04-08T03:10:10.745Z,508.00
2023-04-08T03:11:10.753Z,510.00
2023-04-08T03:12:10.775Z,512.00
2023-04-08T03:13:10.811Z,507.00
2023-04-08T03:14:10.768Z,502.00
2023-04-08T03:15:10.764Z,509.00
2023-04-08T03:16:10.767Z,504.00
2023-04-08T03:17:10.773Z,508.00
2023-04-08T03:18:10.784Z,509.00
2023-04-08T03:19:10.777Z,506.00
2023-04-08T03:20:10.785Z,511.00
2023-04-08T03:21:10.796Z,510.00
2023-04-08T03:22:10.801Z,512.00
2023-04-08T03:23:10.814Z,512.00
2023-04-08T03:24:10.816Z,506.00
2023-04-08T03:25:10.849Z,501.00
2023-04-08T03:26:10.833Z,508.00
2023-04-08T03:27:10.844Z,509.00
2023-04-08T03:28:10.873Z,508.00
2023-04-08T03:29:17.826Z,509.00
2023-04-08T03:30:10.837Z,510.00
2023-04-08T03:31:10.811Z,512.00
2023-04-08T03:32:10.819Z,512.00
2023-04-08T03:33:10.860Z,519.00
2023-04-08T03:34:10.737Z,515.00
2023-04-08T03:35:10.761Z,513.00
2023-04-08T03:36:10.688Z,509.00
2023-04-08T03:37:10.703Z,512.00
2023-04-08T03:38:10.717Z,512.00
2023-04-08T03:39:10.732Z,510.00
2023-04-08T03:40:10.770Z,513.00
2023-04-08T03:41:10.772Z,511.00
2023-04-08T03:42:10.751Z,509.00
2023-04-08T03:43:10.762Z,508.00
2023-04-08T03:44:10.761Z,507.00
2023-04-08T03:45:10.783Z,506.00
2023-04-08T03:46:11.561Z,504.00
2023-04-08T03:47:10.773Z,509.00
2023-04-08T03:48:10.780Z,507.00
2023-04-08T03:49:10.776Z,505.00
2023-04-08T03:50:10.763Z,503.00
2023-04-08T03:51:10.773Z,505.00
2023-04-08T03:52:10.771Z,504.00
2023-04-08T03:53:10.779Z,510.00
2023-04-08T03:54:10.770Z,507.00
2023-04-08T03:55:10.787Z,509.00
2023-04-08T03:56:10.780Z,508.00
2023-04-08T03:57:10.802Z,509.00
2023-04-08T03:58:10.785Z,504.00
2023-04-08T03:59:10.788Z,507.00
2023-04-08T04:00:10.801Z,507.00
2023-04-08T04:01:10.792Z,505.00
2023-04-08T04:02:10.857Z,509.00
2023-04-08T04:03:10.923Z,504.00
2023-04-08T04:04:11.041Z,507.00
2023-04-08T04:05:10.813Z,509.00
2023-04-08T04:06:10.800Z,505.00
2023-04-08T04:07:10.808Z,507.00
2023-04-08T04:08:10.809Z,509.00
2023-04-08T04:09:10.816Z,507.00
2023-04-08T04:10:10.821Z,510.00
2023-04-08T04:11:10.825Z,509.00
2023-04-08T04:12:10.832Z,506.00
2023-04-08T04:13:10.856Z,505.00
2023-04-08T04:14:10.836Z,509.00
2023-04-08T04:15:10.850Z,503.00
2023-04-08T04:16:10.870Z,507.00
2023-04-08T04:17:10.833Z,509.00
2023-04-08T04:18:10.929Z,508.00
2023-04-08T04:19:10.827Z,506.00
2023-04-08T04:20:10.835Z,501.00
2023-04-08T04:21:10.836Z,509.00
2023-04-08T04:22:10.835Z,505.00
2023-04-08T04:23:10.851Z,505.00
2023-04-08T04:24:10.839Z,504.00
2023-04-08T04:25:10.884Z,503.00
2023-04-08T04:26:10.870Z,509.00
2023-04-08T04:27:10.842Z,508.00
2023-04-08T04:28:10.846Z,507.00
2023-04-08T04:29:10.881Z,505.00
2023-04-08T04:30:10.868Z,514.00
2023-04-08T04:31:10.898Z,512.00
2023-04-08T04:32:10.870Z,508.00
2023-04-08T04:33:10.940Z,506.00
2023-04-08T04:34:10.871Z,511.00
2023-04-08T04:35:10.882Z,512.00
2023-04-08T04:36:10.886Z,506.00
2023-04-08T04:37:10.896Z,512.00
2023-04-08T04:38:10.896Z,510.00
2023-04-08T04:39:10.903Z,510.00
2023-04-08T04:40:10.910Z,513.00
2023-04-08T04:41:10.905Z,507.00
2023-04-08T04:42:10.909Z,506.00
2023-04-08T04:43:10.936Z,504.00
2023-04-08T04:44:10.939Z,508.00
2023-04-08T04:45:10.936Z,511.00
2023-04-08T04:46:11.010Z,509.00
2023-04-08T04:47:10.902Z,513.00
2023-04-08T04:48:10.909Z,513.00
2023-04-08T04:49:10.980Z,511.00
2023-04-08T04:50:10.894Z,506.00
2023-04-08T04:51:10.913Z,520.00
2023-04-08T04:52:10.911Z,515.00
2023-04-08T04:53:10.938Z,507.00
2023-04-08T04:54:10.915Z,510.00
2023-04-08T04:55:10.910Z,514.00
2023-04-08T04:56:10.908Z,512.00
2023-04-08T04:57:10.911Z,510.00
2023-04-08T04:58:10.936Z,512.00
2023-04-08T04:59:10.914Z,512.00
2023-04-08T05:00:10.932Z,514.00
2023-04-08T05:01:11.044Z,513.00
2023-04-08T05:02:11.043Z,513.00
2023-04-08T05:03:11.045Z,512.00
2023-04-08T05:04:10.933Z,509.00
2023-04-08T05:05:10.977Z,513.00
2023-04-08T05:06:10.944Z,512.00
2023-04-08T05:07:10.960Z,514.00
2023-04-08T05:08:11.023Z,512.00
2023-04-08T05:09:10.975Z,514.00
2023-04-08T05:10:10.989Z,509.00
2023-04-08T05:11:10.971Z,512.00
2023-04-08T05:12:10.982Z,512.00
2023-04-08T05:13:11.009Z,509.00
2023-04-08T05:14:10.986Z,512.00
2023-04-08T05:15:10.994Z,512.00
2023-04-08T05:16:11.010Z,513.00
2023-04-08T05:17:11.030Z,509.00
2023-04-08T05:18:11.065Z,511.00
2023-04-08T05:19:11.003Z,512.00
2023-04-08T05:20:11.012Z,512.00
2023-04-08T05:21:11.063Z,511.00
2023-04-08T05:22:11.021Z,513.00
2023-04-08T05:23:11.038Z,514.00
2023-04-08T05:24:11.028Z,510.00
2023-04-08T05:25:11.109Z,517.00
2023-04-08T05:26:11.045Z,515.00
2023-04-08T05:27:11.053Z,514.00
2023-04-08T05:28:11.055Z,509.00
2023-04-08T05:29:11.051Z,511.00
2023-04-08T05:30:11.120Z,512.00
2023-04-08T05:31:11.062Z,510.00
2023-04-08T05:32:11.075Z,512.00
2023-04-08T05:33:11.186Z,507.00
2023-04-08T05:34:11.061Z,518.00
2023-04-08T05:35:11.086Z,516.00
2023-04-08T05:36:11.072Z,509.00
2023-04-08T05:37:11.100Z,512.00
2023-04-08T05:38:11.073Z,515.00
2023-04-08T05:39:11.097Z,516.00
2023-04-08T05:40:11.106Z,515.00
2023-04-08T05:41:11.543Z,516.00
2023-04-08T05:42:11.110Z,508.00
2023-04-08T05:43:11.091Z,514.00
2023-04-08T05:44:11.085Z,511.00
2023-04-08T05:45:11.087Z,517.00
2023-04-08T05:46:11.085Z,515.00
2023-04-08T05:47:11.204Z,516.00
2023-04-08T05:48:11.137Z,513.00
2023-04-08T05:49:11.106Z,511.00
2023-04-08T05:50:11.089Z,510.00
2023-04-08T05:51:11.070Z,511.00
2023-04-08T05:52:11.080Z,511.00
2023-04-08T05:53:11.085Z,515.00
2023-04-08T05:54:11.072Z,514.00
2023-04-08T05:55:11.067Z,517.00
2023-04-08T05:56:11.070Z,514.00
2023-04-08T05:57:11.059Z,511.00
2023-04-08T05:58:11.075Z,515.00
2023-04-08T05:59:11.080Z,515.00
2023-04-08T06:00:11.064Z,513.00
2023-04-08T06:01:11.041Z,517.00
2023-04-08T06:02:11.176Z,519.00
2023-04-08T06:03:11.208Z,512.00
2023-04-08T06:04:11.093Z,522.00
2023-04-08T06:05:11.075Z,516.00
2023-04-08T06:06:11.017Z,516.00
2023-04-08T06:07:11.018Z,517.00
2023-04-08T06:08:11.008Z,513.00
2023-04-08T06:09:11.010Z,519.00
2023-04-08T06:10:11.012Z,518.00
2023-04-08T06:11:11.020Z,515.00
2023-04-08T06:12:11.011Z,514.00
2023-04-08T06:13:11.007Z,522.00
2023-04-08T06:14:11.041Z,522.00
2023-04-08T06:15:10.992Z,520.00
2023-04-08T06:16:10.997Z,520.00
2023-04-08T06:17:10.996Z,512.00
2023-04-08T06:18:10.989Z,517.00
2023-04-08T06:19:10.974Z,517.00
2023-04-08T06:20:10.986Z,518.00
2023-04-08T06:21:10.982Z,521.00
2023-04-08T06:22:10.970Z,513.00
2023-04-08T06:23:10.954Z,521.00
2023-04-08T06:24:10.982Z,515.00
2023-04-08T06:25:10.964Z,518.00
2023-04-08T06:26:10.958Z,521.00
2023-04-08T06:27:10.959Z,518.00
2023-04-08T06:28:10.950Z,516.00
2023-04-08T06:29:10.948Z,521.00
2023-04-08T06:30:10.950Z,519.00
2023-04-08T06:31:10.947Z,514.00
2023-04-08T06:32:11.000Z,518.00
2023-04-08T06:33:10.949Z,520.00
2023-04-08T06:34:10.969Z,519.00
2023-04-08T06:35:11.263Z,517.00
2023-04-08T06:36:10.954Z,516.00
2023-04-08T06:37:10.987Z,514.00
2023-04-08T06:38:10.933Z,519.00
2023-04-08T06:39:10.927Z,513.00
2023-04-08T06:40:10.934Z,517.00
2023-04-08T06:41:11.001Z,519.00
2023-04-08T06:42:10.922Z,518.00
2023-04-08T06:43:10.903Z,522.00
2023-04-08T06:44:10.895Z,522.00
2023-04-08T06:45:10.899Z,517.00
2023-04-08T06:46:10.899Z,514.00
2023-04-08T06:47:10.880Z,519.00
2023-04-08T06:48:10.873Z,519.00
2023-04-08T06:49:10.928Z,522.00
2023-04-08T06:50:10.857Z,515.00
2023-04-08T06:51:10.852Z,517.00
2023-04-08T06:52:12.199Z,517.00
2023-04-08T06:53:10.841Z,524.00
2023-04-08T06:54:10.785Z,521.00
2023-04-08T06:55:10.763Z,520.00
2023-04-08T06:56:10.732Z,517.00
2023-04-08T06:57:10.702Z,518.00
2023-04-08T06:58:10.674Z,518.00
2023-04-08T06:59:10.638Z,518.00
2023-04-08T07:00:10.611Z,518.00
2023-04-08T07:01:10.770Z,512.00
2023-04-08T07:02:10.606Z,515.00
2023-04-08T07:03:10.689Z,516.00
2023-04-08T07:04:10.592Z,517.00
2023-04-08T07:05:10.504Z,517.00
2023-04-08T07:06:10.447Z,518.00
2023-04-08T07:07:10.415Z,523.00
2023-04-08T07:08:10.391Z,520.00
2023-04-08T07:09:10.389Z,513.00
2023-04-08T07:10:11.268Z,512.00
2023-04-08T07:11:10.303Z,524.00
2023-04-08T07:12:10.279Z,514.00
2023-04-08T07:13:10.245Z,516.00
2023-04-08T07:14:10.217Z,522.00
2023-04-08T07:15:10.203Z,520.00
2023-04-08T07:16:10.161Z,519.00
2023-04-08T07:17:10.177Z,514.00
2023-04-08T07:18:10.115Z,519.00
2023-04-08T07:19:10.085Z,517.00
2023-04-08T07:20:10.056Z,514.00
2023-04-08T07:21:10.029Z,517.00
2023-04-08T07:22:09.995Z,514.00
2023-04-08T07:23:10.647Z,517.00
2023-04-08T07:24:09.943Z,510.00
2023-04-08T07:25:09.980Z,516.00
2023-04-08T07:26:09.908Z,516.00
2023-04-08T07:27:09.854Z,516.00
2023-04-08T07:28:09.821Z,516.00
2023-04-08T07:29:09.795Z,514.00
2023-04-08T07:30:09.773Z,518.00
2023-04-08T07:31:09.784Z,520.00
2023-04-08T07:32:09.722Z,517.00
2023-04-08T07:33:09.727Z,519.00
2023-04-08T07:34:09.690Z,517.00
2023-04-08T07:35:09.680Z,518.00
2023-04-08T07:36:09.652Z,522.00
2023-04-08T07:37:09.662Z,517.00
2023-04-08T07:38:09.672Z,517.00
2023-04-08T07:39:09.621Z,515.00
2023-04-08T07:40:09.636Z,517.00
2023-04-08T07:41:09.619Z,513.00
2023-04-08T07:42:09.576Z,522.00
2023-04-08T07:43:09.596Z,518.00
2023-04-08T07:44:09.570Z,516.00
2023-04-08T07:45:09.556Z,517.00
2023-04-08T07:46:09.570Z,513.00
2023-04-08T07:47:09.528Z,515.00
2023-04-08T07:48:09.568Z,518.00
2023-04-08T07:49:09.511Z,516.00
2023-04-08T07:50:09.507Z,513.00
2023-04-08T07:51:10.946Z,520.00
2023-04-08T07:52:09.461Z,517.00
2023-04-08T07:53:09.430Z,523.00
2023-04-08T07:54:09.400Z,523.00
2023-04-08T07:55:09.388Z,517.00
2023-04-08T07:56:09.344Z,519.00
2023-04-08T07:57:09.525Z,519.00
2023-04-08T07:58:09.281Z,520.00
2023-04-08T07:59:09.256Z,521.00
2023-04-08T08:00:09.224Z,517.00
2023-04-08T08:01:09.191Z,521.00
2023-04-08T08:02:09.194Z,516.00
2023-04-08T08:03:09.192Z,516.00
2023-04-08T08:04:09.307Z,517.00
2023-04-08T08:05:09.135Z,521.00
2023-04-08T08:06:09.070Z,518.00
2023-04-08T08:07:09.028Z,522.00
2023-04-08T08:08:08.999Z,520.00
2023-04-08T08:09:08.976Z,520.00
2023-04-08T08:10:08.952Z,516.00
2023-04-08T08:11:08.915Z,518.00
2023-04-08T08:12:08.879Z,521.00
2023-04-08T08:13:08.888Z,517.00
2023-04-08T08:14:08.839Z,518.00
2023-04-08T08:15:08.806Z,521.00
2023-04-08T08:16:09.109Z,518.00
2023-04-08T08:17:08.752Z,519.00
2023-04-08T08:18:08.765Z,516.00
2023-04-08T08:19:08.737Z,513.00
2023-04-08T08:20:08.652Z,518.00
2023-04-08T08:21:08.621Z,519.00
2023-04-08T08:22:08.588Z,519.00
2023-04-08T08:23:08.561Z,518.00
2023-04-08T08:24:08.533Z,519.00
2023-04-08T08:25:08.500Z,517.00
2023-04-08T08:26:08.474Z,515.00
2023-04-08T08:27:08.438Z,513.00
2023-04-08T08:28:08.408Z,514.00
2023-04-08T08:29:08.436Z,516.00
2023-04-08T08:30:08.362Z,514.00
2023-04-08T08:31:08.422Z,519.00
2023-04-08T08:32:08.295Z,518.00
2023-04-08T08:33:08.304Z,516.00
2023-04-08T08:34:08.251Z,513.00
2023-04-08T08:35:08.203Z,515.00
2023-04-08T08:36:08.193Z,515.00
2023-04-08T08:37:08.146Z,522.00
2023-04-08T08:38:08.113Z,515.00
2023-04-08T08:39:08.092Z,519.00
2023-04-08T08:40:08.070Z,515.00
2023-04-08T08:41:08.036Z,518.00
2023-04-08T08:42:08.007Z,520.00
2023-04-08T08:43:07.974Z,516.00
2023-04-08T08:44:07.944Z,513.00
2023-04-08T08:45:07.940Z,515.00
2023-04-08T08:46:07.895Z,517.00
2023-04-08T08:47:07.852Z,518.00
2023-04-08T08:48:07.838Z,517.00
2023-04-08T08:49:07.801Z,520.00
2023-04-08T08:50:07.750Z,519.00
2023-04-08T08:51:07.719Z,520.00
2023-04-08T08:52:07.702Z,517.00
2023-04-08T08:53:07.710Z,517.00
2023-04-08T08:54:07.641Z,517.00
2023-04-08T08:55:21.853Z,519.00
2023-04-08T08:57:07.544Z,520.00
2023-04-08T08:58:07.568Z,522.00
2023-04-08T08:59:07.491Z,525.00
2023-04-08T09:00:07.460Z,524.00
2023-04-08T09:01:07.456Z,523.00
2023-04-08T09:02:07.475Z,524.00
2023-04-08T09:03:07.630Z,520.00
2023-04-08T09:04:07.484Z,517.00
2023-04-08T09:05:07.505Z,519.00
2023-04-08T09:06:07.287Z,522.00
2023-04-08T09:07:07.249Z,523.00
2023-04-08T09:08:07.224Z,517.00
2023-04-08T09:09:07.187Z,520.00
2023-04-08T09:10:07.166Z,518.00
2023-04-08T09:11:07.145Z,522.00
2023-04-08T09:12:07.149Z,513.00
2023-04-08T09:13:07.088Z,518.00
2023-04-08T09:14:07.063Z,519.00
2023-04-08T09:15:07.050Z,517.00
2023-04-08T09:16:07.044Z,515.00
2023-04-08T09:17:07.014Z,520.00
2023-04-08T09:18:06.971Z,514.00
2023-04-08T09:19:06.942Z,515.00
2023-04-08T09:20:06.918Z,520.00
2023-04-08T09:21:06.908Z,518.00
2023-04-08T09:22:06.894Z,515.00
2023-04-08T09:23:06.843Z,521.00
2023-04-08T09:24:06.820Z,523.00
2023-04-08T09:25:06.793Z,517.00
2023-04-08T09:26:06.796Z,515.00
2023-04-08T09:27:06.753Z,516.00
2023-04-08T09:28:06.732Z,517.00
2023-04-08T09:29:24.330Z,518.00
2023-04-08T09:30:06.662Z,518.00
2023-04-08T09:31:06.636Z,519.00
2023-04-08T09:32:06.858Z,520.00
2023-04-08T09:33:06.628Z,523.00
2023-04-08T09:34:06.587Z,518.00
2023-04-08T09:35:07.046Z,517.00
2023-04-08T09:36:06.514Z,517.00
2023-04-08T09:37:06.484Z,520.00
2023-04-08T09:38:06.478Z,518.00
2023-04-08T09:39:06.428Z,517.00
2023-04-08T09:40:06.418Z,521.00
2023-04-08T09:41:06.365Z,514.00
2023-04-08T09:42:06.350Z,518.00
2023-04-08T09:43:06.334Z,522.00
2023-04-08T09:44:06.290Z,517.00
2023-04-08T09:45:06.274Z,516.00
2023-04-08T09:46:06.282Z,515.00
2023-04-08T09:47:06.205Z,513.00
2023-04-08T09:48:06.314Z,513.00
2023-04-08T09:49:06.220Z,520.00
2023-04-08T09:50:06.120Z,519.00
2023-04-08T09:51:06.088Z,513.00
2023-04-08T09:52:06.078Z,512.00
2023-04-08T09:53:06.055Z,514.00
2023-04-08T09:54:06.009Z,515.00
2023-04-08T09:55:05.978Z,517.00
2023-04-08T09:56:05.974Z,518.00
2023-04-08T09:57:05.926Z,516.00
2023-04-08T09:58:05.903Z,520.00
2023-04-08T09:59:06.875Z,522.00
2023-04-08T10:00:05.904Z,520.00
2023-04-08T10:01:05.918Z,521.00
2023-04-08T10:02:05.867Z,523.00
2023-04-08T10:03:05.972Z,520.00
2023-04-08T10:04:05.788Z,522.00
2023-04-08T10:05:08.343Z,518.00
2023-04-08T10:06:05.723Z,519.00
2023-04-08T10:07:05.702Z,518.00
2023-04-08T10:08:05.703Z,519.00
2023-04-08T10:09:05.649Z,522.00
2023-04-08T10:10:05.632Z,524.00
2023-04-08T10:11:05.595Z,521.00
2023-04-08T10:12:05.578Z,521.00
2023-04-08T10:13:05.545Z,521.00
2023-04-08T10:14:05.531Z,527.00
2023-04-08T10:15:05.499Z,528.00
2023-04-08T10:16:06.573Z,520.00
2023-04-08T10:17:05.473Z,521.00
2023-04-08T10:18:05.486Z,523.00
2023-04-08T10:19:05.404Z,524.00
2023-04-08T10:20:05.391Z,526.00
2023-04-08T10:21:05.410Z,528.00
2023-04-08T10:22:07.494Z,529.00
2023-04-08T10:23:05.327Z,528.00
2023-04-08T10:24:05.315Z,515.00
2023-04-08T10:25:05.284Z,519.00
2023-04-08T10:26:05.261Z,524.00
2023-04-08T10:27:05.253Z,516.00
2023-04-08T10:28:07.241Z,511.00
2023-04-08T10:29:05.197Z,512.00
2023-04-08T10:30:05.174Z,513.00
2023-04-08T10:31:05.155Z,511.00
2023-04-08T10:32:05.140Z,495.00
2023-04-08T10:33:05.160Z,500.00
2023-04-08T10:34:05.075Z,512.00
2023-04-08T10:35:05.062Z,508.00
2023-04-08T10:36:05.049Z,509.00
2023-04-08T10:37:05.035Z,503.00
2023-04-08T10:38:04.991Z,507.00
2023-04-08T10:39:04.952Z,503.00
2023-04-08T10:40:04.908Z,508.00
2023-04-08T10:41:04.879Z,506.00
2023-04-08T10:42:04.858Z,510.00
2023-04-08T10:43:04.860Z,503.00
2023-04-08T10:44:04.814Z,504.00
2023-04-08T10:45:04.780Z,505.00
2023-04-08T10:46:04.950Z,506.00
2023-04-08T10:47:04.710Z,504.00
2023-04-08T10:48:04.733Z,516.00
2023-04-08T10:49:04.684Z,504.00
2023-04-08T10:50:04.637Z,505.00
2023-04-08T10:51:04.614Z,503.00
2023-04-08T10:52:04.598Z,502.00
2023-04-08T10:53:04.602Z,503.00
2023-04-08T10:54:04.559Z,503.00
2023-04-08T10:55:04.540Z,506.00
2023-04-08T10:56:04.509Z,508.00
2023-04-08T10:57:04.489Z,505.00
2023-04-08T10:58:04.456Z,506.00
2023-04-08T10:59:04.436Z,510.00
2023-04-08T11:00:04.410Z,509.00
2023-04-08T11:01:04.502Z,506.00
2023-04-08T11:02:04.492Z,506.00
2023-04-08T11:03:04.491Z,507.00
2023-04-08T11:04:04.416Z,511.00
2023-04-08T11:05:04.281Z,504.00
2023-04-08T11:06:04.281Z,505.00
2023-04-08T11:07:04.257Z,501.00
2023-04-08T11:08:04.271Z,501.00
2023-04-08T11:09:04.247Z,510.00
2023-04-08T11:10:04.193Z,502.00
2023-04-08T11:11:04.177Z,506.00
2023-04-08T11:12:04.224Z,502.00
2023-04-08T11:13:04.211Z,502.00
2023-04-08T11:14:04.121Z,503.00
2023-04-08T11:15:04.115Z,507.00
2023-04-08T11:16:16.592Z,504.00
2023-04-08T11:17:04.061Z,505.00
2023-04-08T11:18:04.092Z,508.00
2023-04-08T11:19:04.006Z,510.00
2023-04-08T11:20:03.990Z,515.00
2023-04-08T11:21:03.973Z,519.00
2023-04-08T11:22:03.954Z,517.00
2023-04-08T11:23:03.933Z,516.00
2023-04-08T11:24:03.906Z,521.00
2023-04-08T11:25:03.906Z,535.00
2023-04-08T11:26:05.179Z,533.00
2023-04-08T11:27:03.845Z,534.00
2023-04-08T11:28:03.825Z,534.00
2023-04-08T11:29:03.795Z,529.00
2023-04-08T11:30:03.783Z,527.00
2023-04-08T11:31:04.525Z,538.00
2023-04-08T11:32:03.730Z,534.00
2023-04-08T11:33:03.749Z,535.00
2023-04-08T11:34:03.676Z,537.00
2023-04-08T11:35:03.649Z,536.00
2023-04-08T11:36:03.677Z,533.00
2023-04-08T11:37:03.620Z,534.00
2023-04-08T11:38:03.572Z,540.00
2023-04-08T11:39:03.555Z,539.00
2023-04-08T11:40:03.526Z,540.00
2023-04-08T11:41:03.528Z,532.00
2023-04-08T11:42:03.519Z,544.00
2023-04-08T11:43:03.476Z,542.00
2023-04-08T11:44:03.449Z,539.00
2023-04-08T11:45:03.440Z,542.00
2023-04-08T11:46:03.460Z,543.00
2023-04-08T11:47:03.404Z,544.00
2023-04-08T11:48:04.815Z,544.00
2023-04-08T11:49:03.435Z,546.00
2023-04-08T11:50:03.413Z,547.00
2023-04-08T11:51:03.403Z,548.00
2023-04-08T11:52:03.388Z,548.00
2023-04-08T11:53:03.399Z,555.00
2023-04-08T11:54:03.332Z,555.00
2023-04-08T11:55:03.319Z,554.00
2023-04-08T11:56:03.303Z,559.00
2023-04-08T11:57:03.303Z,555.00
2023-04-08T11:58:03.299Z,560.00
2023-04-08T11:59:03.274Z,555.00
2023-04-08T12:00:03.251Z,561.00
2023-04-08T12:01:03.208Z,559.00
2023-04-08T12:02:03.219Z,557.00
2023-04-08T12:03:03.233Z,557.00
2023-04-08T12:04:03.315Z,561.00
2023-04-08T12:05:03.235Z,560.00
2023-04-08T12:06:03.127Z,564.00
2023-04-08T12:07:03.099Z,566.00
2023-04-08T12:08:03.099Z,567.00
2023-04-08T12:09:03.060Z,565.00
2023-04-08T12:10:03.036Z,566.00
2023-04-08T12:11:16.663Z,568.00
2023-04-08T12:12:02.994Z,569.00
2023-04-08T12:13:02.997Z,570.00
2023-04-08T12:14:02.940Z,570.00
2023-04-08T12:15:02.907Z,572.00
2023-04-08T12:16:02.932Z,575.00
2023-04-08T12:17:02.861Z,575.00
2023-04-08T12:18:02.928Z,577.00
2023-04-08T12:19:02.888Z,570.00
2023-04-08T12:20:02.800Z,577.00
2023-04-08T12:21:02.765Z,571.00
2023-04-08T12:22:02.738Z,583.00
2023-04-08T12:23:02.726Z,575.00
2023-04-08T12:24:02.692Z,576.00
2023-04-08T12:25:02.661Z,576.00
2023-04-08T12:26:02.641Z,572.00
2023-04-08T12:27:02.623Z,572.00
2023-04-08T12:28:03.548Z,577.00
2023-04-08T12:29:02.605Z,583.00